• Join FlightAware (Why Join?)
  • Login
  • US Flag 
05:28PM EDT


 

Airport Tracker/Info


-or-


 

Live Flight TrackerFlight Track Log ✈ SWA1130 ✈ 01-Sep-2013 ✈ KBWI - KMHT

Flight Track Log - Related Links

Times and Time Zones

All times are in EDT time to prevent confusion due to time zone crossing. See the SWA1130 flight status page for this flight to view local times or setup timezone preferences in your user account.

Time Position Orientation Groundspeed Altitude Reporting Facility
EDT Latitude Longitude Course Direction KTS MPH feet Rate Location/Type
07:52PM 39.1500 -76.6500 106° East 153 176 1,600  Level Potomac TRACON
07:55PM 39.1122 -76.4850 106° East 221 254 7,900 2,700 Climbing Washington Center
07:56PM 39.1275 -76.3783 80° East 249 287 11,200 3,360 Climbing Washington Center
07:57PM 39.1450 -76.2553 80° East 305 351 14,600 3,420 Climbing Washington Center
07:58PM 39.1644 -76.1108 80° East 351 404 18,000 3,000 Climbing Washington Center
07:59PM 39.1794 -75.9744 82° East 374 430 20,800 2,280 Climbing Washington Center
08:00PM 39.2069 -75.8622 72° East 389 448 22,600 2,400 Climbing Washington Center
08:01PM 39.3072 -75.7364 44° Northeast 401 461 25,600 2,340 Climbing Washington Center
08:02PM 39.3947 -75.6211 45° Northeast 420 483 27,400 1,680 Climbing Washington Center
08:03PM 39.4864 -75.5028 45° Northeast 443 510 29,100 1,740 Climbing Washington Center
08:04PM 39.5781 -75.3814 46° Northeast 459 528 31,000 1,980 Climbing Washington Center
08:06PM 39.7953 -75.0775 47° Northeast 501 577 36,000 1,740 Climbing New York Center
08:07PM 39.8831 -74.9531 47° Northeast 481 554 37,000 480 Climbing New York Center
08:08PM 39.9881 -74.8131 46° Northeast 481 554 37,000  Level New York Center
08:09PM 40.0758 -74.6800 49° Northeast 481 554 37,000  Level New York Center
08:10PM 40.1875 -74.5856 33° Northeast 466 536 37,000 600 Level New York Center
08:11PM 40.3064 -74.5133 25° Northeast 466 536 38,200 960 Climbing New York Center
08:12PM 40.4231 -74.4461 24° Northeast 460 529 39,000 300 Climbing New York Center
08:13PM 40.5442 -74.3761 24° Northeast 460 529 38,900  Descending New York Center
08:14PM 40.6628 -74.3111 23° Northeast 460 529 39,000  Climbing New York Center
08:16PM 40.9344 -74.1736 21° North 456 525 39,000  Level Boston Center
08:17PM 41.0542 -74.1081 22° Northeast 456 525 39,000  Level Boston Center
08:18PM 41.1739 -74.0422 22° Northeast 456 525 39,000  Level Boston Center
08:19PM 41.2936 -73.9844 20° North 456 525 39,000  Level Boston Center
08:20PM 41.4133 -73.9236 21° North 456 525 39,000  Level Boston Center
08:21PM 41.5308 -73.8628 21° North 456 525 39,000  Level Boston Center
08:22PM 41.6544 -73.8100 18° North 456 525 39,000 -1,260 Level Boston Center
08:23PM 41.7794 -73.8069 North 439 505 36,500 -2,700 Descending Boston Center
08:24PM 41.8856 -73.8119 358° North 439 505 33,600 -1,800 Descending Boston Center
08:25PM 42.0128 -73.8119 360° North 439 505 33,000 -360 Descending Boston Center
08:26PM 42.1419 -73.8092 North 445 512 33,000 -1,440 Level Boston Center
08:27PM 42.2692 -73.8119 359° North 450 518 30,100 -2,280 Descending Boston Center
08:28PM 42.3983 -73.8119 360° North 455 524 28,500 -1,380 Descending Boston Center
08:29PM 42.5136 -73.7667 16° North 436 502 27,400 -1,140 Descending Boston Center
08:30PM 42.5653 -73.6156 65° Northeast 394 453 26,300 -1,080 Descending Boston Center
08:31PM 42.5917 -73.4581 77° East 389 448 25,300 -1,020 Descending Boston Center
08:32PM 42.6203 -73.3006 76° East 406 467 24,300 -1,020 Descending Boston Center
08:33PM 42.6483 -73.1458 76° East 413 475 23,300 -1,140 Descending Boston Center
08:34PM 42.6764 -72.9711 78° East 413 475 22,100 -1,500 Descending Boston Center
08:35PM 42.6958 -72.8214 80° East 413 475 20,300 -1,800 Descending Boston Center
08:36PM 42.7169 -72.6858 78° East 392 451 18,500 -1,920 Descending Boston Center
08:37PM 42.7358 -72.5475 79° East 372 428 16,600 -1,920 Descending Boston Center
08:38PM 42.7547 -72.4147 79° East 361 415 14,800 -1,800 Descending Boston Center
08:39PM 42.7733 -72.2817 79° East 356 410 13,000 -1,740 Descending Boston Center
08:40PM 42.7897 -72.1686 79° East 350 403 11,400 -1,620 Descending Boston Center
08:41PM 42.8061 -72.0411 80° East 325 374 9,800 -1,380 Descending Boston Center
08:42PM 42.8203 -71.9447 79° East 300 345 8,700 -1,500 Descending Boston Center
08:43PM 42.8219 -71.8342 89° East 269 310 6,800 -1,620 Descending Boston Center
08:44PM 42.8028 -71.7553 108° East 256 295 5,500 -1,140 Descending Boston Center
08:45PM 42.7833 -71.6622 106° East 238 274 4,600 -780 Descending Boston Center
08:46PM 42.8017 -71.6081 65° Northeast 175 201 4,000 -1,020 Descending Boston Center
08:47PM 42.8367 -71.5653 42° Northeast 153 176 2,600 -1,080 Descending Boston Center
08:48PM 42.8656 -71.5281 43° Northeast 153 176 1,900 -840 Descending Boston Center
08:49PM 42.8986 -71.4850 44° Northeast 147 169 1,000 -840 Descending Boston Center
08:50PM 42.9256 -71.4533 41° Northeast 147 169 300 4,020 Descending Boston Center
08:51PM 42.9606 -71.4131 40° Northeast 147 169 9,000 4,260 Climbing Boston Center
08:52PM 42.9914 -71.3786 39° Northeast 147 169 9,000  Level Boston Center
08:53PM 43.0225 -71.3411 41° Northeast 147 169 9,000  Level Boston Center
08:54PM 43.0533 -71.3064 39° Northeast 147 169 9,000  Level Boston Center
08:55PM 43.0533 -71.3064 14° North 147 169 9,000  Level Boston Center
08:57PM 42.9361 -71.4153 214° Southwest  Level FlightAware Approximate
09:04PM 42.9328 -71.4358 216° Southwest  Level Estimated
09:05PM 42.9328 -71.4358 216° Southwest  Level Estimated
09:06PM 42.9328 -71.4358 216° Southwest  Level Estimated
09:07PM 42.9328 -71.4358 216° Southwest  Level Estimated
09:08PM 42.9328 -71.4358 216° Southwest  Level Estimated
09:09PM 42.9328 -71.4358 216° Southwest  Level Estimated